Time;durP1;ratioP1;P1;durP2;ratioP2;P2;SDS_P1;SDS_P2;PMS_P1;PMS_P2;Temp;Humidity;BMP_temperature;BMP_pressure;BME280_temperature;BME280_humidity;BME280_pressure;Samples;Min_cycle;Max_cycle;Signal;HPM_P1;HPM_P2
2021/04/28 00:02:07;;;;;;;6.07;5.57;;;;;;;;;;5116012;28;20461;-63
2021/04/28 00:04:32;;;;;;;6.23;4.73;;;;;;;;;;5115870;28;20223;-62
2021/04/28 00:07:02;;;;;;;7.77;6.10;;;;;;;;;;5115253;28;20464;-62
2021/04/28 00:09:27;;;;;;;5.30;4.80;;;;;;;;;;5115994;28;20230;-63
2021/04/28 00:11:52;;;;;;;7.77;5.43;;;;;;;;;;5115546;28;20456;-61
2021/04/28 00:14:18;;;;;;;9.43;5.90;;;;;;;;;;5116029;27;20266;-62
2021/04/28 00:16:43;;;;;;;7.00;5.90;;;;;;;;;;5115387;28;20245;-60
2021/04/28 00:19:08;;;;;;;6.40;5.50;;;;;;;;;;5116126;27;20224;-62
2021/04/28 00:21:34;;;;;;;5.40;4.90;;;;;;;;;;5115769;28;20218;-62
2021/04/28 00:24:00;;;;;;;5.53;5.03;;;;;;;;;;5115197;28;20237;-62
2021/04/28 00:26:25;;;;;;;7.50;5.60;;;;;;;;;;5115644;28;20910;-62
2021/04/28 00:28:50;;;;;;;7.43;6.33;;;;;;;;;;5115224;28;20347;-62
2021/04/28 00:31:15;;;;;;;7.23;5.47;;;;;;;;;;5115627;28;20671;-62
2021/04/28 00:33:41;;;;;;;5.83;5.33;;;;;;;;;;5114960;28;20218;-61
2021/04/28 00:36:06;;;;;;;6.50;5.40;;;;;;;;;;5115260;27;20216;-62
2021/04/28 00:38:31;;;;;;;7.23;5.33;;;;;;;;;;5115339;28;20702;-62
2021/04/28 00:40:57;;;;;;;8.03;6.27;;;;;;;;;;5114945;28;20234;-61
2021/04/28 00:43:23;;;;;;;5.60;5.00;;;;;;;;;;5114998;28;20240;-62
2021/04/28 00:45:48;;;;;;;6.57;5.83;;;;;;;;;;5114669;28;20644;-62
2021/04/28 00:48:13;;;;;;;6.13;5.50;;;;;;;;;;5115197;28;20207;-63
2021/04/28 00:50:45;;;;;;;6.13;5.53;;;;;;;;;;5115060;28;20603;-62
2021/04/28 00:53:12;;;;;;;8.73;6.30;;;;;;;;;;5115215;28;20206;-62
2021/04/28 00:55:38;;;;;;;6.37;5.73;;;;;;;;;;5115044;28;20430;-63
2021/04/28 00:58:04;;;;;;;5.77;5.27;;;;;;;;;;5114801;28;20828;-62
2021/04/28 01:00:30;;;;;;;6.97;6.20;;;;;;;;;;5115131;28;20540;-62
2021/04/28 01:02:55;;;;;;;10.20;5.80;;;;;;;;;;5114683;28;20457;-61
2021/04/28 01:05:21;;;;;;;7.57;5.70;;;;;;;;;;5115114;28;20295;-62
2021/04/28 01:07:47;;;;;;;7.53;5.50;;;;;;;;;;5114843;27;20215;-63
2021/04/28 01:10:16;;;;;;;9.40;6.30;;;;;;;;;;5114720;28;20301;-62
2021/04/28 01:12:42;;;;;;;8.03;6.57;;;;;;;;;;5114906;28;20479;-62
2021/04/28 01:15:11;;;;;;;5.73;5.23;;;;;;;;;;5114392;28;20481;-62
2021/04/28 01:17:36;;;;;;;6.00;5.43;;;;;;;;;;5114572;28;20230;-62
2021/04/28 01:20:04;;;;;;;6.50;5.47;;;;;;;;;;5114392;28;20533;-63
2021/04/28 01:22:36;;;;;;;7.07;5.93;;;;;;;;;;5113671;28;20234;-63
2021/04/28 01:25:03;;;;;;;5.67;4.90;;;;;;;;;;5114389;28;20428;-62
2021/04/28 01:27:28;;;;;;;6.73;5.37;;;;;;;;;;5114443;28;20439;-63
2021/04/28 01:29:54;;;;;;;5.87;5.17;;;;;;;;;;5113410;28;20431;-61
2021/04/28 01:32:21;;;;;;;8.23;6.50;;;;;;;;;;5114588;28;20206;-63
2021/04/28 01:34:49;;;;;;;6.53;5.40;;;;;;;;;;5114538;28;20245;-63
2021/04/28 01:37:15;;;;;;;6.43;5.73;;;;;;;;;;5114201;28;20440;-63
2021/04/28 01:39:41;;;;;;;6.57;5.97;;;;;;;;;;5113587;28;20459;-62
2021/04/28 01:42:08;;;;;;;7.17;5.80;;;;;;;;;;5113112;28;20933;-62
2021/04/28 01:44:33;;;;;;;8.20;6.00;;;;;;;;;;5113448;28;20473;-63
2021/04/28 01:46:59;;;;;;;6.27;5.70;;;;;;;;;;5113914;28;20464;-63
2021/04/28 01:49:24;;;;;;;8.37;5.90;;;;;;;;;;5117176;28;20218;-62
2021/04/28 01:51:53;;;;;;;7.47;6.77;;;;;;;;;;5121125;27;20271;-62
2021/04/28 01:54:20;;;;;;;6.70;6.00;;;;;;;;;;5120629;27;20715;-62
2021/04/28 01:56:47;;;;;;;8.33;6.07;;;;;;;;;;5119967;28;20466;-62
2021/04/28 01:59:16;;;;;;;7.90;6.47;;;;;;;;;;5120987;27;20534;-62
2021/04/28 02:01:46;;;;;;;7.17;5.93;;;;;;;;;;5121024;27;20904;-62
2021/04/28 02:04:11;;;;;;;7.63;5.97;;;;;;;;;;5120505;27;20463;-62
2021/04/28 02:06:41;;;;;;;7.30;6.10;;;;;;;;;;5120788;27;20450;-62
2021/04/28 02:09:06;;;;;;;6.90;6.20;;;;;;;;;;5120733;27;20228;-61
2021/04/28 02:11:32;;;;;;;6.40;5.80;;;;;;;;;;5121026;27;20745;-62
2021/04/28 02:13:58;;;;;;;7.73;6.77;;;;;;;;;;5120543;27;20226;-62
2021/04/28 02:16:23;;;;;;;9.53;5.80;;;;;;;;;;5120765;27;20221;-61
2021/04/28 02:18:48;;;;;;;7.80;6.47;;;;;;;;;;5120906;27;20551;-62
2021/04/28 02:21:14;;;;;;;9.03;6.30;;;;;;;;;;5119682;27;20374;-63
2021/04/28 02:23:42;;;;;;;7.57;6.63;;;;;;;;;;5120941;27;20215;-62
2021/04/28 02:26:07;;;;;;;6.63;5.87;;;;;;;;;;5119689;27;20210;-62
2021/04/28 02:28:32;;;;;;;6.53;5.93;;;;;;;;;;5120724;27;20470;-61
2021/04/28 02:30:58;;;;;;;8.97;7.03;;;;;;;;;;5120509;27;20635;-61
2021/04/28 02:33:23;;;;;;;10.23;6.60;;;;;;;;;;5120890;27;20279;-61
2021/04/28 02:35:49;;;;;;;7.57;5.80;;;;;;;;;;5120674;27;20232;-62
2021/04/28 02:38:24;;;;;;;7.90;7.03;;;;;;;;;;5119453;27;20218;-62
2021/04/28 02:40:50;;;;;;;8.47;6.57;;;;;;;;;;5120912;27;20241;-62
2021/04/28 02:43:18;;;;;;;7.57;6.83;;;;;;;;;;5119135;27;20464;-62
2021/04/28 02:45:44;;;;;;;9.90;7.37;;;;;;;;;;5120570;27;20464;-62
2021/04/28 02:48:10;;;;;;;9.03;6.40;;;;;;;;;;5120344;27;20843;-62
2021/04/28 02:50:36;;;;;;;8.07;6.57;;;;;;;;;;5120651;27;20459;-62
2021/04/28 02:53:07;;;;;;;10.80;8.23;;;;;;;;;;5119124;27;20802;-62
2021/04/28 02:55:34;;;;;;;7.70;6.90;;;;;;;;;;5119826;28;20224;-62
2021/04/28 02:57:59;;;;;;;9.70;7.50;;;;;;;;;;5119072;27;20468;-63
2021/04/28 03:00:25;;;;;;;7.70;6.60;;;;;;;;;;5117105;28;20455;-61
2021/04/28 03:02:50;;;;;;;7.30;6.57;;;;;;;;;;5114287;28;20645;-61
2021/04/28 03:05:18;;;;;;;8.00;7.20;;;;;;;;;;5105094;27;20713;-61
2021/04/28 03:07:43;;;;;;;7.93;7.00;;;;;;;;;;5104024;27;20301;-61
2021/04/28 03:10:09;;;;;;;8.63;7.73;;;;;;;;;;5115302;27;20439;-61
2021/04/28 03:12:35;;;;;;;8.17;6.73;;;;;;;;;;5114545;27;20221;-61
2021/04/28 03:15:01;;;;;;;8.60;7.80;;;;;;;;;;5116258;27;20454;-62
2021/04/28 03:17:26;;;;;;;7.53;6.70;;;;;;;;;;5116396;27;20291;-61
2021/04/28 03:19:55;;;;;;;7.77;7.07;;;;;;;;;;5115579;28;20215;-61
2021/04/28 03:22:20;;;;;;;7.27;6.53;;;;;;;;;;5115430;27;20547;-61
2021/04/28 03:24:46;;;;;;;7.40;6.37;;;;;;;;;;5102421;27;20471;-61
2021/04/28 03:27:14;;;;;;;8.40;7.20;;;;;;;;;;5103251;27;20267;-62
2021/04/28 03:29:40;;;;;;;9.73;7.37;;;;;;;;;;5114404;27;20430;-61
2021/04/28 03:32:05;;;;;;;8.03;7.23;;;;;;;;;;5116118;27;20431;-61
2021/04/28 03:34:31;;;;;;;7.93;6.33;;;;;;;;;;5102658;28;20446;-61
2021/04/28 03:36:56;;;;;;;7.67;6.93;;;;;;;;;;5109137;27;20671;-61
2021/04/28 03:39:21;;;;;;;9.00;7.17;;;;;;;;;;5109349;27;20640;-61
2021/04/28 03:41:46;;;;;;;10.47;7.47;;;;;;;;;;5103347;27;20216;-61
2021/04/28 03:44:12;;;;;;;8.40;7.20;;;;;;;;;;5101822;27;20682;-61
2021/04/28 03:46:38;;;;;;;10.20;7.60;;;;;;;;;;5116083;28;20602;-61
2021/04/28 03:49:03;;;;;;;7.67;6.83;;;;;;;;;;5115663;27;20225;-62
2021/04/28 03:51:28;;;;;;;8.63;7.50;;;;;;;;;;5102699;27;20454;-62
2021/04/28 03:53:54;;;;;;;10.63;7.27;;;;;;;;;;5102563;27;20228;-62
2021/04/28 03:56:19;;;;;;;9.13;7.70;;;;;;;;;;5109151;27;20721;-62
2021/04/28 03:58:44;;;;;;;9.23;7.93;;;;;;;;;;5108046;28;20228;-61
2021/04/28 04:01:09;;;;;;;11.40;8.73;;;;;;;;;;5102058;27;20219;-61
2021/04/28 04:03:35;;;;;;;9.33;7.60;;;;;;;;;;5103030;27;20308;-61
2021/04/28 04:06:00;;;;;;;9.47;7.87;;;;;;;;;;5109544;27;20697;-62
2021/04/28 04:08:25;;;;;;;11.37;8.50;;;;;;;;;;5107301;27;20220;-61
2021/04/28 04:10:50;;;;;;;11.43;8.40;;;;;;;;;;5102243;28;20308;-61
2021/04/28 04:13:16;;;;;;;10.30;7.70;;;;;;;;;;5108502;27;20559;-61
2021/04/28 04:15:41;;;;;;;10.47;7.90;;;;;;;;;;5108499;27;20305;-61
2021/04/28 04:18:06;;;;;;;9.03;7.73;;;;;;;;;;5108444;27;20235;-60
2021/04/28 04:20:32;;;;;;;14.23;9.60;;;;;;;;;;5105057;27;20224;-60
2021/04/28 04:22:57;;;;;;;10.00;8.23;;;;;;;;;;5101995;27;20220;-60
2021/04/28 04:25:22;;;;;;;13.10;8.83;;;;;;;;;;5108120;27;20244;-60
2021/04/28 04:27:48;;;;;;;10.03;7.10;;;;;;;;;;5108706;27;20216;-60
2021/04/28 04:30:13;;;;;;;12.03;9.97;;;;;;;;;;5101441;27;20493;-61
2021/04/28 04:32:38;;;;;;;11.13;7.87;;;;;;;;;;5101724;28;20221;-61
2021/04/28 04:35:05;;;;;;;9.30;7.93;;;;;;;;;;5108628;27;20239;-61
2021/04/28 04:37:31;;;;;;;10.10;8.07;;;;;;;;;;5108045;27;21062;-61
2021/04/28 04:39:56;;;;;;;9.23;8.00;;;;;;;;;;5101529;28;20533;-61
2021/04/28 04:42:21;;;;;;;9.70;8.03;;;;;;;;;;5101743;27;20269;-60
2021/04/28 04:44:46;;;;;;;10.73;8.17;;;;;;;;;;5108354;27;20227;-60
2021/04/28 04:47:12;;;;;;;9.77;7.37;;;;;;;;;;5114587;28;20241;-61
2021/04/28 04:49:38;;;;;;;11.20;9.27;;;;;;;;;;5115083;27;20233;-61
2021/04/28 04:52:05;;;;;;;10.03;9.03;;;;;;;;;;5102339;27;20252;-60
2021/04/28 04:54:30;;;;;;;12.53;9.00;;;;;;;;;;5107901;27;20482;-61
2021/04/28 04:56:56;;;;;;;7.83;7.07;;;;;;;;;;5107249;27;20508;-60
2021/04/28 04:59:22;;;;;;;9.53;8.20;;;;;;;;;;5099731;27;20720;-61
2021/04/28 05:01:47;;;;;;;9.50;8.40;;;;;;;;;;5102633;27;20441;-60
2021/04/28 05:04:12;;;;;;;11.73;10.20;;;;;;;;;;5107383;27;20241;-61
2021/04/28 05:06:37;;;;;;;13.57;9.80;;;;;;;;;;5106471;27;20364;-60
2021/04/28 05:09:03;;;;;;;15.13;9.23;;;;;;;;;;5101101;28;20217;-61
2021/04/28 05:11:29;;;;;;;13.03;9.67;;;;;;;;;;5102288;27;20700;-61
2021/04/28 05:13:54;;;;;;;11.43;8.53;;;;;;;;;;5112971;27;20554;-61
2021/04/28 05:16:19;;;;;;;12.27;9.33;;;;;;;;;;5113150;27;20223;-60
2021/04/28 05:18:45;;;;;;;13.90;10.17;;;;;;;;;;5101542;27;20292;-61
2021/04/28 05:21:10;;;;;;;13.57;9.80;;;;;;;;;;5113390;27;20230;-60
2021/04/28 05:23:35;;;;;;;10.80;8.90;;;;;;;;;;5100771;27;20302;-60
2021/04/28 05:26:00;;;;;;;10.10;8.70;;;;;;;;;;5099801;28;20227;-61
2021/04/28 05:28:26;;;;;;;11.23;8.87;;;;;;;;;;5106869;27;20258;-61
2021/04/28 05:30:51;;;;;;;11.13;9.30;;;;;;;;;;5107425;27;20234;-61
2021/04/28 05:33:16;;;;;;;12.67;8.80;;;;;;;;;;5100963;27;20521;-61
2021/04/28 05:35:42;;;;;;;12.90;10.63;;;;;;;;;;5100678;28;20287;-60
2021/04/28 05:38:07;;;;;;;17.87;9.67;;;;;;;;;;5107475;27;20241;-60
2021/04/28 05:40:32;;;;;;;11.40;9.27;;;;;;;;;;5107036;27;20544;-62
2021/04/28 05:42:57;;;;;;;12.13;9.17;;;;;;;;;;5100085;28;20320;-61
2021/04/28 05:45:23;;;;;;;13.33;10.47;;;;;;;;;;5106095;27;20282;-61
2021/04/28 05:47:49;;;;;;;11.83;10.33;;;;;;;;;;5113188;28;20215;-60
2021/04/28 05:50:16;;;;;;;12.43;9.63;;;;;;;;;;5100827;27;20269;-61
2021/04/28 05:52:42;;;;;;;14.57;10.43;;;;;;;;;;5107434;27;20704;-62
2021/04/28 05:55:09;;;;;;;12.70;10.37;;;;;;;;;;5106813;27;20433;-61
2021/04/28 05:57:34;;;;;;;12.30;10.90;;;;;;;;;;5099984;27;20220;-61
2021/04/28 06:00:01;;;;;;;17.33;10.47;;;;;;;;;;5100867;27;20495;-61
2021/04/28 06:02:26;;;;;;;11.93;9.77;;;;;;;;;;5106056;28;20222;-60
2021/04/28 06:04:52;;;;;;;14.30;9.90;;;;;;;;;;5106628;27;20465;-62
2021/04/28 06:07:17;;;;;;;12.30;10.23;;;;;;;;;;5099929;27;20219;-61
2021/04/28 06:09:43;;;;;;;13.50;10.97;;;;;;;;;;5100969;28;20469;-61
2021/04/28 06:12:08;;;;;;;13.70;10.83;;;;;;;;;;5107263;27;20533;-61
2021/04/28 06:14:34;;;;;;;15.00;9.93;;;;;;;;;;5106194;28;20225;-61
2021/04/28 06:17:00;;;;;;;12.97;10.10;;;;;;;;;;5107506;27;20588;-61
2021/04/28 06:19:25;;;;;;;13.73;10.30;;;;;;;;;;5106024;27;20229;-60
2021/04/28 06:21:50;;;;;;;14.27;9.90;;;;;;;;;;5113651;27;20432;-60
2021/04/28 06:24:16;;;;;;;13.13;10.67;;;;;;;;;;5100780;27;20358;-61
2021/04/28 06:26:44;;;;;;;15.90;10.20;;;;;;;;;;5106921;27;20504;-61
2021/04/28 06:29:09;;;;;;;10.53;9.43;;;;;;;;;;5105288;27;20229;-61
2021/04/28 06:31:35;;;;;;;11.17;9.80;;;;;;;;;;5099862;27;20451;-62
2021/04/28 06:34:00;;;;;;;12.60;10.90;;;;;;;;;;5101016;28;20245;-61
2021/04/28 06:36:25;;;;;;;13.40;12.00;;;;;;;;;;5109882;27;20226;-60
2021/04/28 06:38:50;;;;;;;10.83;9.70;;;;;;;;;;5108921;27;20227;-60
2021/04/28 06:41:16;;;;;;;14.13;10.10;;;;;;;;;;5099471;28;20268;-62
2021/04/28 06:43:41;;;;;;;15.00;11.10;;;;;;;;;;5107221;27;20240;-62
2021/04/28 06:46:06;;;;;;;11.97;10.77;;;;;;;;;;5111562;28;20221;-61
2021/04/28 06:48:32;;;;;;;15.90;11.13;;;;;;;;;;5116825;27;20312;-61
2021/04/28 06:50:57;;;;;;;16.00;10.93;;;;;;;;;;5103534;28;20218;-62
2021/04/28 06:53:22;;;;;;;16.90;11.67;;;;;;;;;;5106666;27;20302;-61
2021/04/28 06:55:48;;;;;;;15.90;11.10;;;;;;;;;;5110677;27;20226;-62
2021/04/28 06:58:13;;;;;;;11.37;10.17;;;;;;;;;;5106631;27;20301;-61
2021/04/28 07:00:38;;;;;;;16.60;10.83;;;;;;;;;;5102806;27;20710;-61
2021/04/28 07:03:04;;;;;;;13.97;9.50;;;;;;;;;;5107145;27;20552;-62
2021/04/28 07:05:29;;;;;;;11.60;10.30;;;;;;;;;;5109726;27;20353;-61
2021/04/28 07:07:55;;;;;;;15.50;11.10;;;;;;;;;;5106154;27;20222;-61
2021/04/28 07:10:21;;;;;;;14.73;10.37;;;;;;;;;;5102961;27;20212;-61
2021/04/28 07:12:46;;;;;;;13.20;10.00;;;;;;;;;;5107291;27;20567;-61
2021/04/28 07:15:12;;;;;;;17.07;12.17;;;;;;;;;;5114573;27;20555;-62
2021/04/28 07:17:37;;;;;;;13.10;10.10;;;;;;;;;;5104954;27;20226;-61
2021/04/28 07:20:05;;;;;;;12.27;11.00;;;;;;;;;;5114303;27;20206;-61
2021/04/28 07:22:30;;;;;;;14.63;11.50;;;;;;;;;;5116398;27;20215;-61
2021/04/28 07:24:55;;;;;;;15.50;10.30;;;;;;;;;;5103001;28;20448;-61
2021/04/28 07:27:21;;;;;;;14.00;10.50;;;;;;;;;;5105258;27;20230;-62
2021/04/28 07:29:47;;;;;;;17.03;11.60;;;;;;;;;;5109851;27;20275;-61
2021/04/28 07:32:12;;;;;;;22.67;11.33;;;;;;;;;;5106476;27;20272;-63
2021/04/28 07:34:37;;;;;;;16.50;10.40;;;;;;;;;;5104567;27;20232;-61
2021/04/28 07:37:03;;;;;;;11.23;9.83;;;;;;;;;;5111578;27;20249;-61
2021/04/28 07:39:29;;;;;;;12.87;11.47;;;;;;;;;;5102194;27;20217;-61
2021/04/28 07:41:55;;;;;;;12.60;11.20;;;;;;;;;;5115644;27;20316;-62
2021/04/28 07:44:20;;;;;;;13.40;12.10;;;;;;;;;;5100461;27;20471;-61
2021/04/28 07:46:45;;;;;;;16.80;11.33;;;;;;;;;;5115122;28;20231;-62
2021/04/28 07:49:11;;;;;;;12.60;11.23;;;;;;;;;;5113043;27;20238;-62
2021/04/28 07:51:36;;;;;;;12.37;11.13;;;;;;;;;;5104655;28;20671;-62
2021/04/28 07:54:02;;;;;;;11.87;10.67;;;;;;;;;;5108963;27;20232;-62
2021/04/28 07:56:28;;;;;;;16.03;10.30;;;;;;;;;;5105412;27;20225;-61
2021/04/28 07:58:56;;;;;;;12.90;10.83;;;;;;;;;;5102070;28;20457;-62
2021/04/28 08:01:21;;;;;;;13.50;10.07;;;;;;;;;;5104523;27;20218;-60
2021/04/28 08:03:47;;;;;;;12.93;10.70;;;;;;;;;;5109069;27;20465;-61
2021/04/28 08:06:12;;;;;;;14.77;11.10;;;;;;;;;;5105616;27;20218;-61
2021/04/28 08:08:37;;;;;;;14.83;10.93;;;;;;;;;;5107268;28;20247;-61
2021/04/28 08:11:03;;;;;;;14.73;10.30;;;;;;;;;;5105493;27;20619;-61
2021/04/28 08:13:29;;;;;;;13.47;10.63;;;;;;;;;;5101956;27;20212;-62
2021/04/28 08:15:55;;;;;;;11.23;10.03;;;;;;;;;;5115687;27;20225;-61
2021/04/28 08:18:21;;;;;;;17.00;12.50;;;;;;;;;;5100944;28;20230;-60
2021/04/28 08:20:46;;;;;;;14.53;10.67;;;;;;;;;;5115253;28;20915;-62
2021/04/28 08:23:11;;;;;;;22.90;15.57;;;;;;;;;;5111453;27;20821;-62
2021/04/28 08:25:37;;;;;;;24.70;17.90;;;;;;;;;;5104868;27;20246;-62
2021/04/28 08:28:03;;;;;;;14.93;12.87;;;;;;;;;;5101365;28;20695;-61
2021/04/28 08:30:28;;;;;;;16.90;12.80;;;;;;;;;;5103340;27;20213;-62
2021/04/28 08:32:54;;;;;;;13.40;11.83;;;;;;;;;;5107988;27;20464;-61
2021/04/28 08:35:19;;;;;;;16.70;11.93;;;;;;;;;;5103994;27;20355;-61
2021/04/28 08:37:46;;;;;;;14.53;11.97;;;;;;;;;;5100978;27;20244;-62
2021/04/28 08:40:12;;;;;;;17.80;12.23;;;;;;;;;;5104752;28;20217;-62
2021/04/28 08:42:38;;;;;;;16.13;11.90;;;;;;;;;;5106120;27;20494;-62
2021/04/28 08:45:05;;;;;;;14.90;11.60;;;;;;;;;;5104877;28;20479;-62
2021/04/28 08:47:30;;;;;;;12.17;10.97;;;;;;;;;;5107466;27;20230;-61
2021/04/28 08:49:55;;;;;;;12.27;10.40;;;;;;;;;;5102924;27;20449;-62
2021/04/28 08:52:21;;;;;;;19.90;11.83;;;;;;;;;;5100145;28;20291;-62
2021/04/28 08:54:46;;;;;;;14.00;11.80;;;;;;;;;;5104904;27;20281;-61
2021/04/28 08:57:12;;;;;;;13.40;11.50;;;;;;;;;;5107917;27;20227;-62
2021/04/28 08:59:38;;;;;;;14.20;11.60;;;;;;;;;;5101232;28;20220;-62
2021/04/28 09:02:21;;;;;;;14.80;11.63;;;;;;;;;;5114653;28;20663;-62
2021/04/28 09:05:10;;;;;;;13.97;11.37;;;;;;;;;;5103011;27;20225;-62
2021/04/28 09:07:46;;;;;;;13.63;11.77;;;;;;;;;;5101739;28;20463;-61
2021/04/28 09:10:13;;;;;;;12.97;10.60;;;;;;;;;;5112194;27;20520;-61
2021/04/28 09:12:40;;;;;;;18.30;10.70;;;;;;;;;;5102890;27;20523;-62
2021/04/28 09:15:07;;;;;;;19.10;10.77;;;;;;;;;;5114242;27;20938;-61
2021/04/28 09:17:52;;;;;;;13.53;10.63;;;;;;;;;;5102769;27;20476;-61
2021/04/28 09:20:24;;;;;;;12.90;10.67;;;;;;;;;;5113939;27;20468;-61
2021/04/28 09:23:09;;;;;;;12.40;11.10;;;;;;;;;;5113664;27;20451;-61
2021/04/28 09:25:36;;;;;;;12.80;10.70;;;;;;;;;;5103278;27;20457;-62
2021/04/28 09:28:22;;;;;;;13.47;11.60;;;;;;;;;;5100227;28;23015;-62
2021/04/28 09:30:48;;;;;;;14.83;11.40;;;;;;;;;;5101254;27;20469;-61
2021/04/28 09:33:14;;;;;;;14.80;12.47;;;;;;;;;;5107431;27;20474;-61
2021/04/28 09:35:39;;;;;;;13.40;11.93;;;;;;;;;;5105405;27;20461;-61
2021/04/28 09:38:04;;;;;;;18.83;14.00;;;;;;;;;;5100332;28;20230;-61
2021/04/28 09:40:48;;;;;;;13.50;11.37;;;;;;;;;;5103249;27;20588;-61
2021/04/28 09:43:14;;;;;;;13.33;11.97;;;;;;;;;;5100394;28;20242;-62
2021/04/28 09:45:51;;;;;;;12.03;10.90;;;;;;;;;;5113407;27;20465;-61
2021/04/28 09:48:18;;;;;;;14.40;12.87;;;;;;;;;;5101727;27;20495;-61
2021/04/28 09:50:44;;;;;;;17.67;12.80;;;;;;;;;;5099775;27;20942;-61
2021/04/28 09:53:21;;;;;;;14.70;12.80;;;;;;;;;;5113585;27;20453;-61
2021/04/28 09:55:47;;;;;;;14.40;12.00;;;;;;;;;;5099591;27;20467;-60
2021/04/28 09:58:13;;;;;;;15.60;12.60;;;;;;;;;;5109577;28;20466;-61
2021/04/28 10:00:38;;;;;;;16.43;12.03;;;;;;;;;;5107549;27;20226;-63
2021/04/28 10:03:05;;;;;;;18.60;12.63;;;;;;;;;;5101503;27;20457;-61
2021/04/28 10:05:36;;;;;;;14.23;12.20;;;;;;;;;;5098612;28;20660;-61
2021/04/28 10:08:21;;;;;;;16.73;12.13;;;;;;;;;;5113774;27;20460;-62
2021/04/28 10:10:47;;;;;;;18.03;13.10;;;;;;;;;;5101964;27;20882;-61
2021/04/28 10:13:13;;;;;;;13.07;11.67;;;;;;;;;;5112752;27;20461;-61
2021/04/28 10:15:39;;;;;;;19.57;12.10;;;;;;;;;;5117435;27;20471;-62
2021/04/28 10:18:07;;;;;;;15.40;12.27;;;;;;;;;;5103979;28;20469;-61
2021/04/28 10:20:33;;;;;;;14.90;13.30;;;;;;;;;;5117349;27;20245;-61
2021/04/28 10:23:07;;;;;;;17.77;13.60;;;;;;;;;;5114872;27;20522;-60
2021/04/28 10:25:32;;;;;;;14.87;12.50;;;;;;;;;;5111301;28;20825;-61
2021/04/28 10:28:00;;;;;;;14.70;13.30;;;;;;;;;;5113936;27;20461;-62
2021/04/28 10:30:25;;;;;;;17.17;13.83;;;;;;;;;;5107632;27;20578;-61
2021/04/28 10:32:52;;;;;;;14.20;12.70;;;;;;;;;;5102479;27;20525;-61
2021/04/28 10:35:19;;;;;;;14.17;12.03;;;;;;;;;;5105902;28;20227;-61
2021/04/28 10:37:49;;;;;;;13.43;11.67;;;;;;;;;;5109199;28;20545;-61
2021/04/28 10:40:16;;;;;;;14.07;12.57;;;;;;;;;;5108332;27;20456;-61
2021/04/28 10:42:42;;;;;;;14.00;12.07;;;;;;;;;;5110138;28;20824;-61
2021/04/28 10:45:14;;;;;;;15.10;13.20;;;;;;;;;;5108174;28;20486;-61
2021/04/28 10:47:43;;;;;;;15.80;11.03;;;;;;;;;;5110472;28;20622;-61
2021/04/28 10:50:18;;;;;;;14.10;12.07;;;;;;;;;;5109068;27;20453;-61
2021/04/28 10:53:02;;;;;;;13.20;11.90;;;;;;;;;;5103242;27;20524;-60
2021/04/28 10:55:42;;;;;;;13.73;11.60;;;;;;;;;;5102887;27;20477;-61
2021/04/28 10:58:32;;;;;;;14.40;12.40;;;;;;;;;;5116898;27;20487;-60
2021/04/28 11:00:57;;;;;;;14.50;12.53;;;;;;;;;;5096536;28;20487;-61
2021/04/28 11:03:41;;;;;;;13.87;12.07;;;;;;;;;;5110080;28;21069;-61
2021/04/28 11:08:44;;;;;;;15.57;11.60;;;;;;;;;;5116294;28;20517;-60
2021/04/28 11:11:31;;;;;;;12.30;10.83;;;;;;;;;;5107021;27;20452;-61
2021/04/28 11:14:15;;;;;;;10.53;9.53;;;;;;;;;;5114601;27;20530;-61
2021/04/28 11:16:45;;;;;;;14.00;10.77;;;;;;;;;;5116655;27;20484;-61
2021/04/28 11:19:15;;;;;;;17.50;15.63;;;;;;;;;;5104900;27;20515;-60
2021/04/28 11:21:40;;;;;;;13.50;11.93;;;;;;;;;;5113120;28;20463;-60
2021/04/28 11:24:16;;;;;;;12.90;10.57;;;;;;;;;;5104089;27;20458;-62
2021/04/28 11:26:51;;;;;;;12.80;10.70;;;;;;;;;;5109884;27;20231;-61
2021/04/28 11:29:20;;;;;;;13.80;11.63;;;;;;;;;;5109227;27;20453;-61
2021/04/28 11:31:47;;;;;;;14.90;11.57;;;;;;;;;;5104122;27;20461;-62
2021/04/28 11:34:27;;;;;;;13.73;11.17;;;;;;;;;;5102341;27;20466;-62
2021/04/28 11:36:54;;;;;;;13.80;10.50;;;;;;;;;;5105913;27;20473;-61
2021/04/28 11:39:37;;;;;;;11.13;10.03;;;;;;;;;;5109561;27;20441;-61
2021/04/28 11:42:08;;;;;;;12.30;10.03;;;;;;;;;;5097244;28;20458;-61
2021/04/28 11:44:34;;;;;;;12.50;11.03;;;;;;;;;;5109346;27;20549;-62
2021/04/28 11:47:19;;;;;;;11.03;9.60;;;;;;;;;;5108781;27;20595;-62
2021/04/28 11:49:47;;;;;;;11.17;10.00;;;;;;;;;;5115150;27;20461;-61
2021/04/28 11:52:13;;;;;;;12.27;9.10;;;;;;;;;;5113213;27;20464;-61
2021/04/28 11:54:40;;;;;;;12.30;11.10;;;;;;;;;;5104851;27;20489;-62
2021/04/28 11:57:06;;;;;;;11.63;10.53;;;;;;;;;;5100937;27;20847;-62
2021/04/28 11:59:35;;;;;;;10.80;9.80;;;;;;;;;;5106000;28;20449;-62
2021/04/28 12:02:12;;;;;;;10.17;8.93;;;;;;;;;;5108911;27;20259;-62
2021/04/28 12:04:41;;;;;;;10.03;9.27;;;;;;;;;;5106989;27;20546;-62
2021/04/28 12:07:07;;;;;;;11.53;10.53;;;;;;;;;;5102144;27;20476;-61
2021/04/28 12:09:37;;;;;;;10.90;10.00;;;;;;;;;;5105245;27;20814;-63
2021/04/28 12:12:07;;;;;;;12.03;10.90;;;;;;;;;;5109228;27;20215;-63
2021/04/28 12:14:32;;;;;;;10.93;10.03;;;;;;;;;;5108283;28;20453;-61
2021/04/28 12:16:58;;;;;;;11.07;10.17;;;;;;;;;;5108937;27;20534;-61
2021/04/28 12:19:24;;;;;;;9.87;8.90;;;;;;;;;;5108283;27;20214;-63
2021/04/28 12:21:55;;;;;;;10.40;9.50;;;;;;;;;;5115496;28;20225;-62
2021/04/28 12:24:29;;;;;;;10.63;9.47;;;;;;;;;;5114657;27;20453;-62
2021/04/28 12:27:01;;;;;;;11.90;10.10;;;;;;;;;;5113519;27;20461;-61
2021/04/28 12:29:27;;;;;;;9.90;8.80;;;;;;;;;;5113776;27;20449;-61
2021/04/28 12:31:52;;;;;;;10.57;9.70;;;;;;;;;;5114173;27;21033;-62
2021/04/28 12:34:18;;;;;;;9.20;8.27;;;;;;;;;;5113622;27;20218;-62
2021/04/28 12:36:45;;;;;;;8.23;7.43;;;;;;;;;;5113797;27;20658;-62
2021/04/28 12:39:10;;;;;;;9.00;8.30;;;;;;;;;;5114937;27;20522;-62
2021/04/28 12:41:36;;;;;;;9.30;8.57;;;;;;;;;;5104768;27;20461;-62
2021/04/28 12:44:02;;;;;;;10.80;9.80;;;;;;;;;;5094981;28;20223;-61
2021/04/28 12:46:29;;;;;;;11.63;9.53;;;;;;;;;;5094211;28;20585;-62
2021/04/28 12:49:02;;;;;;;9.47;8.57;;;;;;;;;;5096427;28;20533;-62
2021/04/28 12:51:29;;;;;;;9.20;8.40;;;;;;;;;;5095091;28;20483;-62
2021/04/28 12:53:55;;;;;;;9.63;8.50;;;;;;;;;;5095610;28;20450;-62
2021/04/28 12:56:20;;;;;;;9.93;8.47;;;;;;;;;;5094414;28;20457;-62
2021/04/28 12:58:51;;;;;;;10.13;8.77;;;;;;;;;;5095062;28;20309;-62
2021/04/28 13:01:18;;;;;;;9.23;8.43;;;;;;;;;;5103930;28;20216;-61
2021/04/28 13:03:44;;;;;;;8.67;8.00;;;;;;;;;;5115272;28;20476;-61
2021/04/28 13:06:17;;;;;;;9.47;8.57;;;;;;;;;;5114546;27;20457;-62
2021/04/28 13:08:44;;;;;;;10.07;9.27;;;;;;;;;;5113729;28;20526;-61
2021/04/28 13:11:14;;;;;;;10.40;9.43;;;;;;;;;;5114474;27;20566;-63
2021/04/28 13:13:56;;;;;;;8.80;8.00;;;;;;;;;;5114825;27;20445;-62
2021/04/28 13:16:45;;;;;;;10.00;9.00;;;;;;;;;;5113384;27;20472;-62
2021/04/28 13:19:26;;;;;;;7.63;6.93;;;;;;;;;;5114261;28;20501;-61
2021/04/28 13:22:04;;;;;;;7.90;7.13;;;;;;;;;;5114455;27;20490;-61
2021/04/28 13:24:37;;;;;;;8.50;7.70;;;;;;;;;;5114388;27;21267;-62
2021/04/28 13:27:06;;;;;;;8.70;7.80;;;;;;;;;;5114789;27;20465;-63
2021/04/28 13:29:53;;;;;;;8.33;7.53;;;;;;;;;;5114433;27;20453;-63
2021/04/28 13:32:33;;;;;;;8.27;7.47;;;;;;;;;;5113615;27;20548;-62
2021/04/28 13:35:34;;;;;;;12.00;8.60;;;;;;;;;;5114330;28;20460;-61
2021/04/28 13:38:03;;;;;;;9.53;8.10;;;;;;;;;;5113847;27;20556;-63
2021/04/28 13:40:34;;;;;;;7.27;6.67;;;;;;;;;;5112832;27;20452;-62
2021/04/28 13:43:27;;;;;;;7.70;7.00;;;;;;;;;;5113563;28;20530;-63
2021/04/28 13:45:52;;;;;;;7.23;6.53;;;;;;;;;;5112215;28;20461;-61
2021/04/28 13:48:18;;;;;;;7.87;7.17;;;;;;;;;;5113950;28;20786;-62
2021/04/28 13:50:43;;;;;;;7.40;6.80;;;;;;;;;;5114654;28;20298;-61
2021/04/28 13:53:09;;;;;;;7.60;6.90;;;;;;;;;;5114189;28;20219;-61
2021/04/28 13:55:34;;;;;;;7.93;6.87;;;;;;;;;;5111971;28;20222;-62
2021/04/28 13:57:59;;;;;;;8.43;7.43;;;;;;;;;;5108947;28;20226;-62
2021/04/28 14:00:24;;;;;;;8.67;7.80;;;;;;;;;;5114253;28;20242;-61
2021/04/28 14:02:50;;;;;;;7.83;7.13;;;;;;;;;;5113768;27;20223;-62
2021/04/28 14:05:16;;;;;;;8.03;7.33;;;;;;;;;;5113899;28;20305;-62
2021/04/28 14:07:44;;;;;;;8.17;7.47;;;;;;;;;;5114356;28;20234;-62
2021/04/28 14:10:12;;;;;;;7.67;6.97;;;;;;;;;;5112931;28;20461;-62
2021/04/28 14:12:37;;;;;;;11.87;7.47;;;;;;;;;;5114309;28;20453;-61
2021/04/28 14:15:04;;;;;;;8.97;7.33;;;;;;;;;;5113682;28;20534;-62
2021/04/28 14:17:29;;;;;;;7.93;6.77;;;;;;;;;;5113977;28;20215;-62
2021/04/28 14:19:54;;;;;;;7.63;6.93;;;;;;;;;;5105037;28;20454;-61
2021/04/28 14:22:19;;;;;;;7.90;6.80;;;;;;;;;;5113485;28;20272;-61
2021/04/28 14:24:45;;;;;;;7.40;6.70;;;;;;;;;;5113724;28;20244;-62
2021/04/28 14:27:10;;;;;;;8.10;7.40;;;;;;;;;;5113483;28;20235;-62
2021/04/28 14:29:35;;;;;;;8.63;7.83;;;;;;;;;;5113750;27;20214;-62
2021/04/28 14:32:01;;;;;;;10.47;7.53;;;;;;;;;;5113455;27;20230;-60
2021/04/28 14:34:26;;;;;;;7.37;6.70;;;;;;;;;;5113708;27;20318;-62
2021/04/28 14:36:51;;;;;;;7.13;6.53;;;;;;;;;;5113437;27;20223;-61